Time;durP1;ratioP1;P1;durP2;ratioP2;P2;SDS_P1;SDS_P2;PMS_P1;PMS_P2;Temp;Humidity;BMP_temperature;BMP_pressure;BME280_temperature;BME280_humidity;BME280_pressure;Samples;Min_cycle;Max_cycle;Signal;HPM_P1;HPM_P2
2021/10/15 00:02:25;;;;;;;;;;;10.00;99.90;;;;;;4977474;28;19910;-74
2021/10/15 00:04:50;;;;;;;;;;;9.90;99.90;;;;;;4977105;28;19906;-73
2021/10/15 00:07:16;;;;;;;;;;;9.70;99.90;;;;;;4977653;28;19906;-75
2021/10/15 00:09:41;;;;;;;;;;;9.70;99.90;;;;;;4977072;28;19906;-72
2021/10/15 00:12:07;;;;;;;;;;;9.60;99.90;;;;;;4977242;28;20286;-74
2021/10/15 00:14:32;;;;;;;;;;;9.50;99.90;;;;;;4976920;28;19906;-75
2021/10/15 00:16:58;;;;;;;;;;;9.60;99.90;;;;;;4977086;28;19913;-74
2021/10/15 00:19:24;;;;;;;;;;;9.60;99.90;;;;;;4976539;28;19909;-73
2021/10/15 00:21:49;;;;;;;;;;;9.70;99.90;;;;;;4976734;28;19906;-73
2021/10/15 00:24:15;;;;;;;;;;;9.80;99.90;;;;;;4976818;28;19908;-75
2021/10/15 00:26:40;;;;;;;;;;;9.80;99.90;;;;;;4976305;28;19921;-73
2021/10/15 00:29:08;;;;;;;;;;;9.60;99.90;;;;;;4976934;28;20310;-75
2021/10/15 00:31:33;;;;;;;;;;;9.50;99.90;;;;;;4976685;28;20370;-74
2021/10/15 00:33:59;;;;;;;;;;;9.50;99.90;;;;;;4977137;28;19912;-77
2021/10/15 00:36:24;;;;;;;;;;;9.40;99.90;;;;;;4976471;28;19914;-74
2021/10/15 00:38:50;;;;;;;;;;;9.50;99.90;;;;;;4976749;28;19992;-74
2021/10/15 00:41:17;;;;;;;;;;;9.50;99.90;;;;;;4976449;28;19922;-72
2021/10/15 00:44:01;;;;;;;;;;;9.50;99.90;;;;;;4976722;28;19906;-72
2021/10/15 00:46:27;;;;;;;;;;;9.60;99.90;;;;;;4976345;28;19909;-75
2021/10/15 00:48:52;;;;;;;;;;;9.50;99.90;;;;;;4976347;28;20429;-75
2021/10/15 00:51:18;;;;;;;;;;;9.30;99.90;;;;;;4976794;28;19960;-74
2021/10/15 00:53:44;;;;;;;;;;;9.40;99.90;;;;;;4976503;28;19906;-75
2021/10/15 00:56:09;;;;;;;;;;;9.30;99.90;;;;;;4976635;28;20236;-72
2021/10/15 00:58:35;;;;;;;;;;;9.20;99.90;;;;;;4976147;28;19906;-75
2021/10/15 01:01:01;;;;;;;;;;;9.20;99.90;;;;;;4976075;28;19934;-75
2021/10/15 01:03:27;;;;;;;;;;;9.20;99.90;;;;;;4976323;28;19910;-74
2021/10/15 01:05:53;;;;;;;;;;;9.20;99.90;;;;;;4975936;28;20359;-74
2021/10/15 01:08:18;;;;;;;;;;;9.30;99.90;;;;;;4976188;28;19913;-74
2021/10/15 01:10:44;;;;;;;;;;;9.20;99.90;;;;;;4975884;28;19906;-75
2021/10/15 01:13:09;;;;;;;;;;;9.00;99.90;;;;;;4975969;28;19906;-73
2021/10/15 01:15:35;;;;;;;;;;;9.00;99.90;;;;;;4975769;28;20387;-75
2021/10/15 01:18:00;;;;;;;;;;;9.00;99.90;;;;;;4975786;28;19928;-76
2021/10/15 01:20:26;;;;;;;;;;;8.90;99.90;;;;;;4976018;28;20387;-73
2021/10/15 01:22:51;;;;;;;;;;;9.10;99.90;;;;;;4975595;28;19906;-75
2021/10/15 01:25:17;;;;;;;;;;;9.20;99.90;;;;;;4975652;28;19984;-74
2021/10/15 01:27:42;;;;;;;;;;;9.30;99.90;;;;;;4975623;28;20351;-74
2021/10/15 01:30:10;;;;;;;;;;;9.30;99.90;;;;;;4975170;28;19912;-73
2021/10/15 01:32:36;;;;;;;;;;;9.20;99.90;;;;;;4974325;28;19997;-73
2021/10/15 01:35:01;;;;;;;;;;;9.20;99.90;;;;;;4974279;28;19942;-74
2021/10/15 01:37:27;;;;;;;;;;;9.00;99.90;;;;;;4975939;28;20337;-75
2021/10/15 01:39:52;;;;;;;;;;;8.90;99.90;;;;;;4975433;28;19905;-73
2021/10/15 01:45:02;;;;;;;;;;;8.70;99.90;;;;;;4975978;28;20405;-74
2021/10/15 01:47:27;;;;;;;;;;;8.50;99.90;;;;;;4975338;28;19910;-72
2021/10/15 01:49:54;;;;;;;;;;;8.70;99.90;;;;;;4975525;28;20437;-73
2021/10/15 01:52:20;;;;;;;;;;;8.80;99.90;;;;;;4975293;28;19996;-74
2021/10/15 01:54:45;;;;;;;;;;;8.80;99.90;;;;;;4975735;28;19960;-75
2021/10/15 01:57:11;;;;;;;;;;;8.80;99.90;;;;;;4975117;28;19953;-74
2021/10/15 01:59:36;;;;;;;;;;;8.80;99.90;;;;;;4975143;28;19957;-74
2021/10/15 02:02:02;;;;;;;;;;;8.70;99.90;;;;;;4975096;28;19906;-72
2021/10/15 02:04:27;;;;;;;;;;;8.90;99.90;;;;;;4975067;28;19906;-75
2021/10/15 02:06:53;;;;;;;;;;;8.90;99.90;;;;;;4975315;28;19993;-76
2021/10/15 02:09:18;;;;;;;;;;;8.80;99.90;;;;;;4975001;28;19906;-74
2021/10/15 02:11:44;;;;;;;;;;;8.80;99.90;;;;;;4973789;28;19913;-74
2021/10/15 02:14:09;;;;;;;;;;;8.90;99.90;;;;;;4974937;28;19906;-73
2021/10/15 02:16:35;;;;;;;;;;;8.90;99.90;;;;;;4975399;28;20351;-76
2021/10/15 02:19:00;;;;;;;;;;;8.80;99.90;;;;;;4974956;28;19906;-75
2021/10/15 02:21:26;;;;;;;;;;;8.80;99.90;;;;;;4973577;28;20326;-76
2021/10/15 02:23:51;;;;;;;;;;;8.80;99.90;;;;;;4974822;28;19957;-72
2021/10/15 02:26:20;;;;;;;;;;;8.70;99.90;;;;;;4974503;28;19965;-73
2021/10/15 02:28:46;;;;;;;;;;;8.60;99.90;;;;;;4974852;28;19996;-73
2021/10/15 02:31:11;;;;;;;;;;;8.70;99.90;;;;;;4974836;28;19956;-73
2021/10/15 02:33:37;;;;;;;;;;;8.70;99.90;;;;;;4975055;28;20327;-76
2021/10/15 02:36:02;;;;;;;;;;;8.70;99.90;;;;;;4974648;28;19965;-75
2021/10/15 02:38:28;;;;;;;;;;;8.70;99.90;;;;;;4974800;28;19910;-73
2021/10/15 02:40:53;;;;;;;;;;;8.60;99.90;;;;;;4975524;28;20354;-74
2021/10/15 02:43:19;;;;;;;;;;;8.60;99.90;;;;;;4977356;28;19906;-73
2021/10/15 02:45:44;;;;;;;;;;;8.60;99.90;;;;;;4978551;28;19913;-71
2021/10/15 02:48:10;;;;;;;;;;;8.60;99.90;;;;;;4978527;28;19906;-75
2021/10/15 02:50:35;;;;;;;;;;;8.70;99.90;;;;;;4978504;28;20294;-73
2021/10/15 02:53:01;;;;;;;;;;;8.70;99.90;;;;;;4978752;28;20386;-73
2021/10/15 02:55:27;;;;;;;;;;;8.60;99.90;;;;;;4978385;28;20397;-77
2021/10/15 02:57:52;;;;;;;;;;;8.60;99.90;;;;;;4978623;28;19945;-73
2021/10/15 03:00:18;;;;;;;;;;;8.60;99.90;;;;;;4978325;28;19906;-74
2021/10/15 03:02:43;;;;;;;;;;;8.70;99.90;;;;;;4978274;28;20278;-74
2021/10/15 03:05:09;;;;;;;;;;;8.70;99.90;;;;;;4978782;28;19906;-73
2021/10/15 03:07:34;;;;;;;;;;;8.70;99.90;;;;;;4978206;28;19914;-72
2021/10/15 03:10:00;;;;;;;;;;;8.70;99.90;;;;;;4978454;28;19906;-71
2021/10/15 03:12:26;;;;;;;;;;;8.70;99.90;;;;;;4978143;28;20004;-73
2021/10/15 03:14:51;;;;;;;;;;;8.50;99.90;;;;;;4978063;28;20278;-75
2021/10/15 03:17:17;;;;;;;;;;;8.70;99.90;;;;;;4978434;28;20370;-73
2021/10/15 03:19:42;;;;;;;;;;;8.70;99.90;;;;;;4977939;28;19906;-72
2021/10/15 03:22:09;;;;;;;;;;;8.90;99.90;;;;;;4977802;28;19976;-74
2021/10/15 03:24:35;;;;;;;;;;;8.90;99.90;;;;;;4977741;28;19910;-74
2021/10/15 03:27:00;;;;;;;;;;;9.00;99.90;;;;;;4978172;28;19910;-77
2021/10/15 03:29:26;;;;;;;;;;;9.10;99.90;;;;;;4978096;28;19952;-76
2021/10/15 03:31:51;;;;;;;;;;;9.00;99.90;;;;;;4978094;28;19913;-74
2021/10/15 03:34:17;;;;;;;;;;;8.90;99.90;;;;;;4977728;28;19906;-73
2021/10/15 03:36:42;;;;;;;;;;;8.90;99.90;;;;;;4976293;28;19969;-72
2021/10/15 03:39:10;;;;;;;;;;;8.80;99.90;;;;;;4978181;28;19920;-75
2021/10/15 03:41:37;;;;;;;;;;;8.70;99.90;;;;;;4977616;28;20059;-74
2021/10/15 03:44:03;;;;;;;;;;;8.80;99.90;;;;;;4977846;28;19906;-74
2021/10/15 03:46:28;;;;;;;;;;;8.70;99.90;;;;;;4977474;28;19992;-71
2021/10/15 03:48:54;;;;;;;;;;;8.70;99.90;;;;;;4977436;28;19988;-74
2021/10/15 03:51:19;;;;;;;;;;;8.80;99.90;;;;;;4977721;28;19989;-76
2021/10/15 03:53:45;;;;;;;;;;;8.70;99.90;;;;;;4976633;28;19914;-73
2021/10/15 03:56:10;;;;;;;;;;;8.80;99.90;;;;;;4977498;28;19910;-73
2021/10/15 03:58:36;;;;;;;;;;;8.70;99.90;;;;;;4977248;28;19994;-76
2021/10/15 04:01:01;;;;;;;;;;;8.80;99.90;;;;;;4977483;28;19929;-73
2021/10/15 04:03:27;;;;;;;;;;;8.60;99.90;;;;;;4977248;28;19933;-75
2021/10/15 04:05:52;;;;;;;;;;;8.50;99.90;;;;;;4977118;28;19913;-73
2021/10/15 04:08:18;;;;;;;;;;;8.50;99.90;;;;;;4977389;28;19957;-75
2021/10/15 04:10:43;;;;;;;;;;;8.50;99.90;;;;;;4977089;28;19906;-74
2021/10/15 04:13:09;;;;;;;;;;;8.50;99.90;;;;;;4977022;28;20260;-72
2021/10/15 04:15:34;;;;;;;;;;;8.60;99.90;;;;;;4977170;28;19906;-74
2021/10/15 04:18:00;;;;;;;;;;;8.70;99.90;;;;;;4976949;28;19913;-74
2021/10/15 04:20:25;;;;;;;;;;;8.60;99.90;;;;;;4976904;28;20412;-72
2021/10/15 04:22:51;;;;;;;;;;;8.40;99.90;;;;;;4977060;28;19933;-73
2021/10/15 04:25:16;;;;;;;;;;;8.40;99.90;;;;;;4976773;28;19913;-73
2021/10/15 04:27:42;;;;;;;;;;;8.40;99.90;;;;;;4976760;28;20000;-75
2021/10/15 04:30:08;;;;;;;;;;;8.40;99.90;;;;;;4976722;28;19996;-74
2021/10/15 04:32:33;;;;;;;;;;;8.50;99.90;;;;;;4976662;28;19996;-74
2021/10/15 04:34:59;;;;;;;;;;;8.40;99.90;;;;;;4976967;28;19906;-74
2021/10/15 04:37:24;;;;;;;;;;;8.30;99.90;;;;;;4976454;28;19914;-73
2021/10/15 04:39:50;;;;;;;;;;;8.30;99.90;;;;;;4976513;28;19913;-74
2021/10/15 04:42:15;;;;;;;;;;;8.40;99.90;;;;;;4977036;28;20082;-76
2021/10/15 04:44:41;;;;;;;;;;;8.50;99.90;;;;;;4976459;28;19906;-72
2021/10/15 04:47:06;;;;;;;;;;;8.50;99.90;;;;;;4976402;28;19910;-76
2021/10/15 04:49:32;;;;;;;;;;;8.60;99.90;;;;;;4976373;28;20409;-72
2021/10/15 04:51:57;;;;;;;;;;;8.60;99.90;;;;;;4976288;28;19913;-75
2021/10/15 04:54:23;;;;;;;;;;;8.70;99.90;;;;;;4976036;28;19906;-75
2021/10/15 04:56:48;;;;;;;;;;;8.80;99.90;;;;;;4976419;28;19914;-74
2021/10/15 04:59:14;;;;;;;;;;;8.70;99.90;;;;;;4976181;28;19960;-75
2021/10/15 05:01:39;;;;;;;;;;;8.60;99.90;;;;;;4976390;28;20379;-74
2021/10/15 05:04:05;;;;;;;;;;;8.60;99.90;;;;;;4975770;28;19906;-76
2021/10/15 05:06:30;;;;;;;;;;;8.50;99.90;;;;;;4975903;28;19957;-73
2021/10/15 05:09:12;;;;;;;;;;;8.40;99.90;;;;;;4976245;28;19957;-73
2021/10/15 05:11:40;;;;;;;;;;;8.40;99.90;;;;;;4974427;28;20006;-75
2021/10/15 05:14:05;;;;;;;;;;;8.30;99.90;;;;;;4976178;28;19923;-73
2021/10/15 05:16:31;;;;;;;;;;;8.30;99.90;;;;;;4975743;28;19914;-73
2021/10/15 05:18:57;;;;;;;;;;;8.10;99.90;;;;;;4975773;28;19949;-75
2021/10/15 05:21:22;;;;;;;;;;;8.00;99.90;;;;;;4976063;28;19906;-77
2021/10/15 05:23:48;;;;;;;;;;;8.00;99.90;;;;;;4975334;28;19910;-74
2021/10/15 05:26:13;;;;;;;;;;;8.10;99.90;;;;;;4975575;28;20370;-74
2021/10/15 05:28:39;;;;;;;;;;;8.20;99.90;;;;;;4976198;28;19906;-73
2021/10/15 05:31:04;;;;;;;;;;;8.30;99.90;;;;;;4975589;28;19960;-72
2021/10/15 05:33:30;;;;;;;;;;;8.30;99.90;;;;;;4975537;28;19906;-76
2021/10/15 05:35:55;;;;;;;;;;;8.40;99.90;;;;;;4975697;28;19914;-76
2021/10/15 05:38:21;;;;;;;;;;;8.50;99.90;;;;;;4975463;28;20012;-71
2021/10/15 05:40:46;;;;;;;;;;;8.30;99.90;;;;;;4975702;28;19910;-74
2021/10/15 05:43:12;;;;;;;;;;;8.10;99.90;;;;;;4975420;28;19929;-74
2021/10/15 05:45:37;;;;;;;;;;;7.90;99.90;;;;;;4975346;28;19906;-74
2021/10/15 05:48:03;;;;;;;;;;;7.90;99.90;;;;;;4974029;28;19905;-74
2021/10/15 05:50:30;;;;;;;;;;;7.70;99.90;;;;;;4975315;28;19906;-72
2021/10/15 05:53:02;;;;;;;;;;;7.70;99.90;;;;;;4975564;28;19941;-73
2021/10/15 06:00:57;;;;;;;;;;;8.10;99.90;;;;;;4975197;28;20330;-75
2021/10/15 06:03:25;;;;;;;;;;;8.10;99.90;;;;;;4975115;28;19906;-74
2021/10/15 06:16:26;;;;;;;;;;;8.00;99.90;;;;;;4974295;28;19910;-75
2021/10/15 06:18:56;;;;;;;;;;;7.90;99.90;;;;;;4975213;28;19906;-74
2021/10/15 06:21:22;;;;;;;;;;;7.90;99.90;;;;;;4974929;28;19909;-73
2021/10/15 06:23:47;;;;;;;;;;;7.90;99.90;;;;;;4975097;28;19932;-74
2021/10/15 06:26:13;;;;;;;;;;;7.90;99.90;;;;;;4974540;28;19914;-76
2021/10/15 06:28:39;;;;;;;;;;;8.00;99.90;;;;;;4974850;28;19960;-75
2021/10/15 06:31:04;;;;;;;;;;;8.00;99.90;;;;;;4975106;28;19960;-74
2021/10/15 06:33:30;;;;;;;;;;;8.00;99.90;;;;;;4974762;28;19906;-74
2021/10/15 06:35:55;;;;;;;;;;;8.00;99.90;;;;;;4975259;28;19950;-73
2021/10/15 06:38:21;;;;;;;;;;;8.00;99.90;;;;;;4974995;28;19985;-74
2021/10/15 06:40:46;;;;;;;;;;;7.90;99.90;;;;;;4974742;28;19932;-76
2021/10/15 06:45:56;;;;;;;;;;;7.90;99.90;;;;;;4974754;28;20393;-73
2021/10/15 06:48:21;;;;;;;;;;;7.90;99.90;;;;;;4974633;28;19906;-74
2021/10/15 06:50:47;;;;;;;;;;;7.90;99.90;;;;;;4989598;28;19910;-75
2021/10/15 06:53:13;;;;;;;;;;;7.80;99.90;;;;;;4974933;28;20377;-75
2021/10/15 06:55:38;;;;;;;;;;;7.70;99.90;;;;;;4974573;28;19909;-74
2021/10/15 06:58:04;;;;;;;;;;;7.80;99.90;;;;;;4974631;28;19961;-74
2021/10/15 07:00:30;;;;;;;;;;;7.90;99.90;;;;;;4974607;28;19913;-74
2021/10/15 07:02:56;;;;;;;;;;;7.90;99.90;;;;;;4974808;28;19910;-74
2021/10/15 07:05:21;;;;;;;;;;;8.00;99.90;;;;;;4974514;28;19952;-72
2021/10/15 07:07:47;;;;;;;;;;;8.10;99.90;;;;;;4974536;28;19906;-73
2021/10/15 07:10:12;;;;;;;;;;;8.00;99.90;;;;;;4974560;28;20330;-74
2021/10/15 07:12:39;;;;;;;;;;;7.90;99.90;;;;;;4973199;28;20374;-71
2021/10/15 07:15:05;;;;;;;;;;;7.70;99.90;;;;;;4974478;28;19933;-72
2021/10/15 07:17:30;;;;;;;;;;;7.80;99.90;;;;;;4974400;28;20358;-74
2021/10/15 07:19:56;;;;;;;;;;;7.70;99.90;;;;;;4974957;28;19960;-74
2021/10/15 07:22:21;;;;;;;;;;;7.90;99.90;;;;;;4974581;28;19997;-77
2021/10/15 07:24:47;;;;;;;;;;;7.90;99.90;;;;;;4974415;28;19906;-75
2021/10/15 07:27:12;;;;;;;;;;;8.00;99.90;;;;;;4974947;28;19906;-73
2021/10/15 07:29:38;;;;;;;;;;;8.10;99.90;;;;;;4977105;28;19953;-79
2021/10/15 07:32:03;;;;;;;;;;;8.30;99.90;;;;;;4978105;28;19910;-74
2021/10/15 07:34:29;;;;;;;;;;;8.20;99.90;;;;;;4977699;28;19993;-72
2021/10/15 07:36:55;;;;;;;;;;;8.30;99.90;;;;;;4977613;28;19937;-74
2021/10/15 07:39:20;;;;;;;;;;;8.30;99.90;;;;;;4977975;28;19960;-72
2021/10/15 07:41:46;;;;;;;;;;;8.40;99.90;;;;;;4977605;28;19917;-74
2021/10/15 07:44:12;;;;;;;;;;;8.30;99.90;;;;;;4977887;28;19944;-71
2021/10/15 07:46:39;;;;;;;;;;;8.40;99.90;;;;;;4977865;28;19953;-72
2021/10/15 07:49:05;;;;;;;;;;;8.70;99.90;;;;;;4978059;28;19917;-71
2021/10/15 07:51:30;;;;;;;;;;;8.80;99.90;;;;;;4977510;28;19956;-72
2021/10/15 07:53:56;;;;;;;;;;;8.90;99.90;;;;;;4977389;28;20388;-70
2021/10/15 07:56:21;;;;;;;;;;;9.20;99.90;;;;;;4976026;28;19932;-73
2021/10/15 07:58:47;;;;;;;;;;;9.30;99.90;;;;;;4977562;28;19913;-72
2021/10/15 08:01:12;;;;;;;;;;;9.40;99.90;;;;;;4977281;28;20380;-75
2021/10/15 08:03:38;;;;;;;;;;;9.40;99.90;;;;;;4976042;28;19906;-72
2021/10/15 08:06:03;;;;;;;;;;;9.60;99.90;;;;;;4977951;28;19960;-71
2021/10/15 08:08:29;;;;;;;;;;;9.80;99.90;;;;;;4977183;28;20346;-73
2021/10/15 08:10:54;;;;;;;;;;;10.00;99.90;;;;;;4977484;28;20282;-72
2021/10/15 08:13:20;;;;;;;;;;;10.10;99.90;;;;;;4977081;28;19906;-71
2021/10/15 08:15:45;;;;;;;;;;;10.30;99.90;;;;;;4976908;28;19910;-73
2021/10/15 08:18:11;;;;;;;;;;;10.40;99.90;;;;;;4976938;28;19913;-73
2021/10/15 08:20:37;;;;;;;;;;;10.60;99.90;;;;;;4976908;28;19906;-74
2021/10/15 08:23:02;;;;;;;;;;;10.60;99.90;;;;;;4976818;28;20396;-73
2021/10/15 08:25:28;;;;;;;;;;;10.60;99.90;;;;;;4976956;28;19914;-76
2021/10/15 08:27:54;;;;;;;;;;;10.70;99.90;;;;;;4976797;28;20373;-71
2021/10/15 08:30:20;;;;;;;;;;;10.60;99.90;;;;;;4976798;28;19906;-73
2021/10/15 08:32:45;;;;;;;;;;;10.60;99.90;;;;;;4976707;28;20483;-77
2021/10/15 08:35:11;;;;;;;;;;;10.70;99.90;;;;;;4976876;28;19910;-71
2021/10/15 08:37:37;;;;;;;;;;;10.70;99.90;;;;;;4976533;28;19936;-73
2021/10/15 08:40:04;;;;;;;;;;;10.70;99.90;;;;;;4976899;28;19942;-73
2021/10/15 08:42:29;;;;;;;;;;;10.70;99.90;;;;;;4976439;28;19961;-73
2021/10/15 08:44:55;;;;;;;;;;;10.70;99.90;;;;;;4975211;28;20314;-73
2021/10/15 08:47:20;;;;;;;;;;;10.70;99.90;;;;;;4976366;28;19906;-75
2021/10/15 08:49:46;;;;;;;;;;;10.70;99.90;;;;;;4976636;28;19937;-71
2021/10/15 08:52:12;;;;;;;;;;;10.70;99.90;;;;;;4976325;28;19910;-72
2021/10/15 08:54:38;;;;;;;;;;;10.70;99.90;;;;;;4976828;28;19906;-70
2021/10/15 08:57:04;;;;;;;;;;;10.80;99.90;;;;;;4976415;28;20389;-71
2021/10/15 08:59:37;;;;;;;;;;;10.80;99.90;;;;;;4976521;28;19906;-72
2021/10/15 09:02:17;;;;;;;;;;;10.90;99.90;;;;;;4976193;28;19906;-71
2021/10/15 09:04:47;;;;;;;;;;;11.00;99.90;;;;;;4976756;28;19906;-71
2021/10/15 09:07:16;;;;;;;;;;;11.00;99.90;;;;;;4976095;28;19906;-72
2021/10/15 09:09:42;;;;;;;;;;;11.10;99.90;;;;;;4975987;28;20390;-73
2021/10/15 09:12:09;;;;;;;;;;;11.10;99.90;;;;;;4976231;28;19906;-74
2021/10/15 09:14:37;;;;;;;;;;;11.10;99.90;;;;;;4975910;28;19906;-70
2021/10/15 09:17:08;;;;;;;;;;;11.20;99.90;;;;;;4976366;28;19910;-69
2021/10/15 09:19:50;;;;;;;;;;;11.30;99.90;;;;;;4976127;28;19906;-69
2021/10/15 09:22:31;;;;;;;;;;;11.30;99.90;;;;;;4975719;28;19913;-70
2021/10/15 09:24:59;;;;;;;;;;;11.40;99.90;;;;;;4975560;28;19979;-70
2021/10/15 09:27:34;;;;;;;;;;;11.80;99.90;;;;;;4976039;28;19956;-73
2021/10/15 09:30:20;;;;;;;;;;;11.90;99.90;;;;;;4975688;28;19998;-70
2021/10/15 09:32:53;;;;;;;;;;;12.20;99.90;;;;;;4975239;28;19932;-71
2021/10/15 09:35:20;;;;;;;;;;;12.60;99.90;;;;;;4975573;28;20355;-73
2021/10/15 09:37:46;;;;;;;;;;;13.20;99.90;;;;;;4975437;28;19938;-70
2021/10/15 09:40:13;;;;;;;;;;;13.50;99.90;;;;;;4975508;28;19913;-72
2021/10/15 09:42:46;;;;;;;;;;;13.70;99.90;;;;;;4975393;28;20354;-73
2021/10/15 09:45:16;;;;;;;;;;;13.80;99.90;;;;;;4975408;28;19913;-73
2021/10/15 09:47:52;;;;;;;;;;;13.80;99.90;;;;;;4975933;28;19973;-73
2021/10/15 09:50:19;;;;;;;;;;;14.10;99.90;;;;;;4975252;28;20371;-72
2021/10/15 09:52:46;;;;;;;;;;;14.50;99.90;;;;;;4975490;28;19957;-73
2021/10/15 09:55:41;;;;;;;;;;;14.90;99.90;;;;;;4975264;28;19906;-73
2021/10/15 09:58:17;;;;;;;;;;;15.00;99.90;;;;;;4966570;28;20389;-73
2021/10/15 10:00:43;;;;;;;;;;;15.10;99.90;;;;;;4990062;28;19914;-72
2021/10/15 10:03:09;;;;;;;;;;;15.20;99.90;;;;;;4975686;28;20389;-71
2021/10/15 10:05:35;;;;;;;;;;;14.90;99.90;;;;;;4975127;28;19906;-72
2021/10/15 10:08:01;;;;;;;;;;;14.70;99.90;;;;;;4975082;28;19910;-72
2021/10/15 10:10:28;;;;;;;;;;;14.40;99.90;;;;;;4975324;28;19978;-71
2021/10/15 10:12:54;;;;;;;;;;;14.20;99.90;;;;;;4975274;28;19906;-71
2021/10/15 10:15:20;;;;;;;;;;;14.20;99.90;;;;;;4974975;28;19906;-70
2021/10/15 10:17:49;;;;;;;;;;;14.20;99.90;;;;;;4975470;28;20005;-71
2021/10/15 10:20:16;;;;;;;;;;;14.20;99.90;;;;;;4975247;28;19948;-72
2021/10/15 10:23:05;;;;;;;;;;;14.20;99.90;;;;;;4973569;28;20286;-72
2021/10/15 10:25:30;;;;;;;;;;;14.20;99.90;;;;;;4975032;28;19914;-73
2021/10/15 10:27:57;;;;;;;;;;;14.20;99.90;;;;;;4975150;28;20332;-74
2021/10/15 10:30:39;;;;;;;;;;;14.20;99.90;;;;;;4974825;28;19906;-71
2021/10/15 10:33:05;;;;;;;;;;;14.40;99.90;;;;;;4974877;28;19952;-74
2021/10/15 10:35:30;;;;;;;;;;;14.50;99.90;;;;;;4975067;28;19906;-76
2021/10/15 10:38:15;;;;;;;;;;;14.50;99.90;;;;;;4974730;28;20296;-70
2021/10/15 10:40:59;;;;;;;;;;;14.50;99.90;;;;;;4974756;28;19913;-72
2021/10/15 10:43:24;;;;;;;;;;;14.50;99.90;;;;;;4974686;28;19906;-72
2021/10/15 10:46:08;;;;;;;;;;;14.60;99.90;;;;;;4975244;28;19912;-74
2021/10/15 10:48:53;;;;;;;;;;;14.50;99.90;;;;;;4974689;28;20314;-72
2021/10/15 10:51:27;;;;;;;;;;;14.60;99.90;;;;;;4975021;28;19921;-71
2021/10/15 10:53:58;;;;;;;;;;;14.60;99.90;;;;;;4974689;28;19996;-72
2021/10/15 10:56:39;;;;;;;;;;;14.50;99.90;;;;;;4974891;28;19910;-73
2021/10/15 10:59:25;;;;;;;;;;;14.50;99.90;;;;;;4974654;28;19972;-71
2021/10/15 11:02:14;;;;;;;;;;;14.50;99.90;;;;;;4975073;28;19913;-75
2021/10/15 11:04:42;;;;;;;;;;;14.60;99.90;;;;;;4978350;28;20367;-73
2021/10/15 11:07:17;;;;;;;;;;;14.60;99.90;;;;;;4978541;28;19906;-73
2021/10/15 11:09:50;;;;;;;;;;;14.50;99.90;;;;;;4978238;28;20362;-72
2021/10/15 11:12:27;;;;;;;;;;;14.60;99.90;;;;;;4978745;28;19929;-73
2021/10/15 11:14:55;;;;;;;;;;;14.60;99.90;;;;;;4978086;28;19956;-71
2021/10/15 11:17:30;;;;;;;;;;;14.70;99.90;;;;;;4978576;28;19910;-74
2021/10/15 11:20:09;;;;;;;;;;;14.70;99.90;;;;;;4978108;28;19913;-72
2021/10/15 11:22:34;;;;;;;;;;;14.70;99.90;;;;;;4978301;28;19928;-73
2021/10/15 11:25:00;;;;;;;;;;;14.70;99.90;;;;;;4977731;28;20355;-70
2021/10/15 11:27:25;;;;;;;;;;;14.70;99.90;;;;;;4977991;28;19906;-72
2021/10/15 11:29:52;;;;;;;;;;;14.70;99.90;;;;;;4978123;28;19912;-72
2021/10/15 11:32:31;;;;;;;;;;;14.70;99.90;;;;;;4992786;28;19985;-73
2021/10/15 11:35:09;;;;;;;;;;;14.70;99.90;;;;;;4977772;28;20394;-71
2021/10/15 11:37:46;;;;;;;;;;;14.80;99.90;;;;;;4977666;28;19914;-72
2021/10/15 11:40:15;;;;;;;;;;;14.80;99.90;;;;;;4977666;28;20314;-72
2021/10/15 11:42:41;;;;;;;;;;;14.80;99.90;;;;;;4977648;28;19912;-71
2021/10/15 11:45:39;;;;;;;;;;;14.80;99.90;;;;;;4978130;28;19910;-72
2021/10/15 11:48:07;;;;;;;;;;;14.80;99.90;;;;;;4955400;28;19965;-72
2021/10/15 11:50:34;;;;;;;;;;;14.70;99.90;;;;;;4978081;28;19978;-74
2021/10/15 11:53:00;;;;;;;;;;;14.60;99.90;;;;;;4977753;28;19910;-69
2021/10/15 11:55:31;;;;;;;;;;;14.60;99.90;;;;;;4977954;28;20394;-70
2021/10/15 11:58:15;;;;;;;;;;;14.60;99.90;;;;;;4977300;28;19921;-70
2021/10/15 12:01:03;;;;;;;;;;;14.50;99.90;;;;;;4977852;28;19912;-73
2021/10/15 12:03:32;;;;;;;;;;;14.60;99.90;;;;;;4977267;28;19969;-75
2021/10/15 12:06:18;;;;;;;;;;;14.60;99.90;;;;;;4977462;28;19922;-76
2021/10/15 12:08:44;;;;;;;;;;;14.70;99.90;;;;;;4977136;28;20367;-72
2021/10/15 12:11:15;;;;;;;;;;;14.80;99.90;;;;;;4977150;28;19906;-70
2021/10/15 12:13:41;;;;;;;;;;;14.80;99.90;;;;;;4977109;28;19906;-72
2021/10/15 12:16:16;;;;;;;;;;;14.90;99.90;;;;;;4976893;28;20021;-75
2021/10/15 12:18:41;;;;;;;;;;;15.10;99.90;;;;;;4977003;28;19906;-75
2021/10/15 12:21:11;;;;;;;;;;;15.20;99.90;;;;;;4977215;28;19958;-73
2021/10/15 12:23:52;;;;;;;;;;;15.20;99.90;;;;;;4976896;28;19906;-72
2021/10/15 12:26:18;;;;;;;;;;;15.20;99.90;;;;;;4976674;28;20005;-70
2021/10/15 12:28:44;;;;;;;;;;;15.30;99.90;;;;;;4977130;28;19906;-71
2021/10/15 12:31:30;;;;;;;;;;;15.40;99.90;;;;;;4976751;28;20330;-74
2021/10/15 12:34:02;;;;;;;;;;;15.50;99.90;;;;;;4969463;28;19906;-72
2021/10/15 12:36:28;;;;;;;;;;;15.50;99.90;;;;;;4977134;28;19918;-69
2021/10/15 12:39:13;;;;;;;;;;;15.50;99.90;;;;;;4976565;28;19906;-72
2021/10/15 12:41:39;;;;;;;;;;;15.50;99.90;;;;;;4976726;28;20354;-73
2021/10/15 12:44:37;;;;;;;;;;;15.50;99.90;;;;;;4976803;28;19906;-72
2021/10/15 12:47:07;;;;;;;;;;;15.40;99.90;;;;;;4954328;28;19993;-73
2021/10/15 12:49:51;;;;;;;;;;;15.40;99.90;;;;;;4976763;28;19906;-74
2021/10/15 12:52:33;;;;;;;;;;;15.50;99.90;;;;;;4976327;28;19917;-72
2021/10/15 12:55:15;;;;;;;;;;;15.60;99.90;;;;;;4976878;28;20274;-72
2021/10/15 12:57:42;;;;;;;;;;;15.70;99.90;;;;;;4976224;28;19910;-74
2021/10/15 13:00:09;;;;;;;;;;;15.70;99.90;;;;;;4976778;28;19916;-74
2021/10/15 13:02:34;;;;;;;;;;;15.80;99.90;;;;;;4976114;28;19929;-71
2021/10/15 13:05:01;;;;;;;;;;;15.80;99.90;;;;;;4976139;28;20371;-74
2021/10/15 13:07:27;;;;;;;;;;;15.90;99.90;;;;;;4976090;28;19910;-75
2021/10/15 13:09:53;;;;;;;;;;;15.90;99.90;;;;;;4976617;28;19961;-75
2021/10/15 13:12:18;;;;;;;;;;;15.90;99.90;;;;;;4976032;28;19964;-75
2021/10/15 13:14:44;;;;;;;;;;;15.90;99.90;;;;;;4975939;28;19956;-75
2021/10/15 13:17:11;;;;;;;;;;;15.80;99.90;;;;;;4976403;28;19910;-72
2021/10/15 13:19:36;;;;;;;;;;;15.90;99.90;;;;;;4975888;28;20405;-72
2021/10/15 13:22:02;;;;;;;;;;;15.90;99.90;;;;;;4976263;28;19912;-72
2021/10/15 13:24:28;;;;;;;;;;;15.90;99.90;;;;;;4976052;28;20355;-73
2021/10/15 13:26:53;;;;;;;;;;;16.00;99.90;;;;;;4973465;28;20422;-71
2021/10/15 13:29:19;;;;;;;;;;;15.90;99.90;;;;;;4975961;28;20255;-73
2021/10/15 13:31:44;;;;;;;;;;;16.00;99.90;;;;;;4975630;28;19912;-72
2021/10/15 13:34:10;;;;;;;;;;;16.00;99.90;;;;;;4975887;28;19906;-74
2021/10/15 13:36:40;;;;;;;;;;;16.10;99.90;;;;;;4975502;28;19914;-71
2021/10/15 13:39:08;;;;;;;;;;;16.10;99.90;;;;;;4975857;28;19952;-74
2021/10/15 13:46:53;;;;;;;;;;;16.10;99.90;;;;;;4975400;28;20346;-74
2021/10/15 13:52:03;;;;;;;;;;;16.00;99.90;;;;;;4975680;28;19948;-74
2021/10/15 13:54:29;;;;;;;;;;;16.10;99.90;;;;;;4975306;28;20386;-72
2021/10/15 13:56:55;;;;;;;;;;;16.10;99.90;;;;;;4973893;28;19917;-74
2021/10/15 13:59:25;;;;;;;;;;;16.20;99.90;;;;;;4975519;28;20310;-73
2021/10/15 14:01:56;;;;;;;;;;;16.20;99.90;;;;;;4975196;28;20274;-71
2021/10/15 14:06:53;;;;;;;;;;;16.20;99.90;;;;;;4974876;28;19928;-74
2021/10/15 14:09:19;;;;;;;;;;;16.20;99.90;;;;;;4975096;28;20363;-75
2021/10/15 14:11:44;;;;;;;;;;;16.20;99.90;;;;;;4975053;28;19952;-74
2021/10/15 14:14:10;;;;;;;;;;;16.20;99.90;;;;;;4975582;28;19909;-76
2021/10/15 14:16:35;;;;;;;;;;;16.30;99.90;;;;;;4974933;28;19917;-73
2021/10/15 14:19:01;;;;;;;;;;;16.30;99.90;;;;;;4974974;28;19912;-72
2021/10/15 14:21:26;;;;;;;;;;;16.30;99.90;;;;;;4974934;28;19910;-72
2021/10/15 14:23:52;;;;;;;;;;;16.20;99.90;;;;;;4974902;28;20314;-74
2021/10/15 14:26:18;;;;;;;;;;;16.30;99.90;;;;;;4974809;28;19914;-71
2021/10/15 14:28:45;;;;;;;;;;;16.30;99.90;;;;;;4975154;28;20010;-73
2021/10/15 14:31:11;;;;;;;;;;;16.30;99.90;;;;;;4973605;28;19956;-71
2021/10/15 14:33:36;;;;;;;;;;;16.40;99.90;;;;;;4975438;28;19910;-75
2021/10/15 14:36:02;;;;;;;;;;;16.40;99.90;;;;;;4975070;28;19993;-73
2021/10/15 14:38:27;;;;;;;;;;;16.40;99.90;;;;;;4977974;28;19906;-74
2021/10/15 14:40:53;;;;;;;;;;;16.40;99.90;;;;;;4978772;28;19906;-74
2021/10/15 14:43:18;;;;;;;;;;;16.50;99.90;;;;;;4978760;28;19957;-75
2021/10/15 14:45:44;;;;;;;;;;;16.60;99.90;;;;;;4978958;28;19932;-72
2021/10/15 14:48:10;;;;;;;;;;;16.60;99.90;;;;;;4978651;28;19906;-71
2021/10/15 14:50:35;;;;;;;;;;;16.60;99.90;;;;;;4978888;28;19906;-73
2021/10/15 14:53:01;;;;;;;;;;;16.60;99.90;;;;;;4978526;28;19910;-73
2021/10/15 14:55:27;;;;;;;;;;;16.60;99.90;;;;;;4978824;28;19910;-73
2021/10/15 14:57:53;;;;;;;;;;;16.70;99.90;;;;;;4978409;28;19933;-76
2021/10/15 15:00:18;;;;;;;;;;;16.70;99.90;;;;;;4978468;28;19906;-74